Terminal Aerodrome Forecast
Issued by NWS

Home | Current Version | Previous Version | Text Only | Print | Product List | Glossary On
Versions: 1 2 3 4 5 6 7 8 9 10 11 12 13 14 15 16 17 18 19
000
FTUS46 KSEW 231100
TAFHQM
TAF
KHQM 231132Z 2312/2412 07006KT P6SM -SHRA SCT035 BKN060 OVC100
     FM231800 18008KT P6SM -SHRA BKN035 OVC050
     FM232300 20008KT P6SM -SHRA SCT035 BKN050 BKN070=

USA.gov is the U.S. government's official web portal to all federal, state and local government web resources and services.